createdAt,value
2018-10-17T00:00:52.385Z,16.73
2018-10-17T00:03:21.168Z,18.47
2018-10-17T00:05:50.745Z,18.90
2018-10-17T00:08:19.976Z,19.60
2018-10-17T00:10:49.074Z,18.00
2018-10-17T00:13:18.247Z,18.70
2018-10-17T00:15:47.313Z,21.13
2018-10-17T00:18:16.153Z,20.00
2018-10-17T00:21:48.738Z,20.53
2018-10-17T00:24:17.835Z,19.50
2018-10-17T00:26:46.819Z,20.87
2018-10-17T00:29:16.041Z,22.47
2018-10-17T00:31:45.214Z,24.33
2018-10-17T00:34:15.293Z,26.17
2018-10-17T00:36:44.222Z,27.80
2018-10-17T00:39:13.176Z,28.83
2018-10-17T00:41:42.296Z,34.80
2018-10-17T00:44:11.418Z,32.83
2018-10-17T00:46:40.358Z,33.13
2018-10-17T00:49:09.878Z,31.20
2018-10-17T00:51:39.076Z,35.50
2018-10-17T00:54:08.070Z,37.67
2018-10-17T00:56:37.219Z,35.60
2018-10-17T00:59:15.790Z,38.00
2018-10-17T01:01:44.764Z,36.27
2018-10-17T01:04:13.930Z,35.43
2018-10-17T01:06:42.837Z,37.30
2018-10-17T01:09:13.109Z,35.30
2018-10-17T01:11:42.611Z,36.43
2018-10-17T01:14:11.788Z,34.60
2018-10-17T01:16:40.995Z,35.43
2018-10-17T01:19:10.043Z,37.80
2018-10-17T01:21:39.145Z,39.77
2018-10-17T01:24:09.209Z,39.13
2018-10-17T01:26:38.264Z,37.63
2018-10-17T01:29:08.564Z,38.07
2018-10-17T01:31:38.032Z,40.43
2018-10-17T01:34:07.391Z,35.30
2018-10-17T01:36:36.691Z,37.17
2018-10-17T01:39:08.656Z,37.40
2018-10-17T01:41:38.085Z,39.10
2018-10-17T01:44:08.136Z,38.50
2018-10-17T01:46:37.562Z,37.53
2018-10-17T01:49:06.632Z,38.10
2018-10-17T01:51:35.472Z,39.33
2018-10-17T01:54:04.564Z,37.90
2018-10-17T01:56:33.756Z,37.90
2018-10-17T01:59:03.943Z,38.30
2018-10-17T02:01:33.083Z,38.90
2018-10-17T02:04:03.341Z,39.93
2018-10-17T02:06:33.049Z,37.37
2018-10-17T02:09:02.312Z,40.87
2018-10-17T02:11:31.618Z,37.60
2018-10-17T02:14:00.609Z,37.60
2018-10-17T02:16:29.608Z,39.00
2018-10-17T02:18:58.923Z,39.60
2018-10-17T02:21:28.121Z,38.50
2018-10-17T02:23:56.891Z,37.03
2018-10-17T02:26:26.013Z,38.80
2018-10-17T02:28:55.014Z,37.50
2018-10-17T02:31:24.736Z,39.47
2018-10-17T02:33:53.580Z,37.53
2018-10-17T02:36:22.763Z,40.13
2018-10-17T02:38:51.861Z,41.03
2018-10-17T02:41:21.208Z,40.63
2018-10-17T02:43:50.149Z,41.03
2018-10-17T02:46:19.177Z,41.27
2018-10-17T02:48:51.050Z,39.93
2018-10-17T02:51:20.338Z,39.10
2018-10-17T02:53:49.417Z,38.47
2018-10-17T02:56:18.569Z,40.30
2018-10-17T02:59:50.971Z,43.13
2018-10-17T03:02:19.986Z,39.23
2018-10-17T03:04:48.657Z,36.97
2018-10-17T03:07:17.489Z,39.60
2018-10-17T03:09:46.551Z,37.77
2018-10-17T03:12:15.831Z,40.27
2018-10-17T03:14:44.944Z,38.23
2018-10-17T03:17:14.108Z,39.73
2018-10-17T03:19:43.336Z,38.93
2018-10-17T03:22:12.237Z,38.77
2018-10-17T03:24:41.495Z,38.70
2018-10-17T03:27:10.533Z,37.73
2018-10-17T03:29:39.847Z,39.23
2018-10-17T03:32:09.354Z,40.13
2018-10-17T03:34:38.326Z,39.00
2018-10-17T03:38:10.390Z,37.90
2018-10-17T03:40:39.597Z,37.90
2018-10-17T03:43:08.781Z,39.50
2018-10-17T03:45:38.186Z,39.30
2018-10-17T03:48:09.801Z,38.97
2018-10-17T03:50:40.807Z,41.00
2018-10-17T03:53:09.810Z,41.77
2018-10-17T03:55:40.094Z,42.40
2018-10-17T03:58:09.093Z,44.57
2018-10-17T04:00:38.158Z,39.17
2018-10-17T04:03:07.348Z,45.80
2018-10-17T04:05:36.639Z,47.75
2018-10-17T04:08:05.703Z,45.87
2018-10-17T04:10:34.907Z,46.13
2018-10-17T04:13:03.939Z,40.77
2018-10-17T04:15:33.077Z,43.65
2018-10-17T04:18:02.286Z,42.33
2018-10-17T04:20:31.065Z,44.57
2018-10-17T04:23:00.190Z,40.60
2018-10-17T04:25:29.164Z,44.80
2018-10-17T04:27:58.028Z,46.10
2018-10-17T04:30:27.844Z,45.40
2018-10-17T04:32:56.607Z,45.80
2018-10-17T04:35:25.702Z,48.10
2018-10-17T04:37:54.516Z,47.73
2018-10-17T04:40:23.609Z,46.25
2018-10-17T04:42:52.285Z,47.87
2018-10-17T04:45:21.020Z,49.53
2018-10-17T04:47:50.264Z,47.50
2018-10-17T04:50:19.090Z,49.33
2018-10-17T04:52:47.962Z,48.90
2018-10-17T04:55:18.116Z,51.67
2018-10-17T04:57:46.976Z,49.57
2018-10-17T05:00:15.852Z,50.67
2018-10-17T05:02:44.980Z,52.40
2018-10-17T05:10:10.485Z,50.30
2018-10-17T05:12:38.988Z,54.00
2018-10-17T05:15:07.685Z,49.90
2018-10-17T05:17:36.180Z,51.30
2018-10-17T05:20:05.705Z,52.70
2018-10-17T05:25:02.490Z,50.95
2018-10-17T05:27:31.180Z,51.37
2018-10-17T05:30:00.110Z,53.15
2018-10-17T05:32:28.860Z,51.50
2018-10-17T05:34:57.729Z,52.35
2018-10-17T05:37:26.552Z,51.40
2018-10-17T05:39:55.392Z,53.80
2018-10-17T05:42:24.453Z,53.10
2018-10-17T05:44:53.106Z,55.47
2018-10-17T05:47:21.785Z,54.50
2018-10-17T05:49:50.556Z,50.98
2018-10-17T05:52:19.469Z,53.10
2018-10-17T05:54:48.193Z,56.10
2018-10-17T05:57:17.291Z,52.90
2018-10-17T05:59:46.245Z,51.40
2018-10-17T06:02:17.873Z,50.90
2018-10-17T06:04:46.522Z,49.50
2018-10-17T06:07:16.240Z,49.20
2018-10-17T06:12:12.805Z,47.45
2018-10-17T06:14:41.488Z,45.50
2018-10-17T06:19:38.448Z,45.00
2018-10-17T06:22:07.323Z,49.30
2018-10-17T06:24:36.237Z,46.33
2018-10-17T06:27:04.997Z,45.20
2018-10-17T06:29:34.827Z,42.10
2018-10-17T06:32:03.684Z,42.85
2018-10-17T06:34:32.550Z,44.50
2018-10-17T06:37:01.319Z,46.60
2018-10-17T06:39:29.910Z,45.25
2018-10-17T06:41:58.598Z,43.37
2018-10-17T06:44:27.387Z,45.00
2018-10-17T06:46:55.976Z,48.20
2018-10-17T06:49:24.758Z,49.50
2018-10-17T06:51:53.402Z,46.20
2018-10-17T06:54:22.089Z,45.90
2018-10-17T06:56:51.950Z,43.20
2018-10-17T06:59:20.759Z,44.95
2018-10-17T07:01:49.314Z,45.40
2018-10-17T07:04:17.718Z,38.70
2018-10-17T07:06:46.144Z,41.73
2018-10-17T07:09:15.655Z,39.10
2018-10-17T07:11:44.120Z,38.40
2018-10-17T07:14:12.685Z,40.33
2018-10-17T07:16:41.156Z,41.40
2018-10-17T07:21:37.480Z,33.35
2018-10-17T07:24:05.864Z,37.27
2018-10-17T07:26:34.356Z,37.15
2018-10-17T07:29:02.845Z,36.55
2018-10-17T07:31:31.205Z,33.25
2018-10-17T07:36:27.464Z,31.30
2018-10-17T07:41:23.617Z,31.50
2018-10-17T07:43:51.961Z,27.90
2018-10-17T07:46:20.605Z,31.90
2018-10-17T07:48:49.067Z,32.65
2018-10-17T07:51:17.673Z,30.95
2018-10-17T07:53:46.196Z,31.10
2018-10-17T07:56:14.708Z,32.20
2018-10-17T07:58:43.256Z,34.53
2018-10-17T08:01:11.756Z,34.80
2018-10-17T08:03:40.156Z,33.05
2018-10-17T08:06:08.892Z,31.50
2018-10-17T08:08:39.385Z,32.63
2018-10-17T08:11:08.179Z,32.00
2018-10-17T08:13:36.637Z,33.65
2018-10-17T08:16:05.221Z,33.65
2018-10-17T08:18:33.857Z,32.97
2018-10-17T08:21:02.614Z,32.70
2018-10-17T08:23:31.145Z,32.80
2018-10-17T08:25:59.812Z,33.00
2018-10-17T08:30:56.729Z,34.40
2018-10-17T08:33:25.434Z,31.40
2018-10-17T08:35:54.410Z,29.37
2018-10-17T08:38:23.049Z,31.95
2018-10-17T08:40:51.808Z,29.50
2018-10-17T08:45:48.353Z,31.97
2018-10-17T08:48:16.968Z,29.10
2018-10-17T08:50:45.808Z,31.30
2018-10-17T09:03:10.174Z,28.80
2018-10-17T09:05:38.748Z,28.00
2018-10-17T09:18:00.605Z,23.70
2018-10-17T09:30:21.661Z,25.10
2018-10-17T09:57:40.209Z,21.20
2018-10-17T10:00:14.529Z,22.80
2018-10-17T10:02:43.618Z,22.60
2018-10-17T10:05:12.401Z,21.10
2018-10-17T10:10:09.372Z,23.20
2018-10-17T10:17:33.726Z,21.40
2018-10-17T10:20:02.712Z,21.55
2018-10-17T10:24:59.293Z,18.35
2018-10-17T10:32:25.652Z,17.80
2018-10-17T10:52:11.198Z,16.55
2018-10-17T11:31:37.904Z,15.00
2018-10-17T11:34:06.272Z,16.10
2018-10-17T11:36:34.686Z,15.37
2018-10-17T11:41:30.782Z,15.50
2018-10-17T11:43:59.380Z,16.20
2018-10-17T11:46:28.168Z,18.07
2018-10-17T11:48:56.732Z,17.60
2018-10-17T11:51:25.338Z,20.30
2018-10-17T11:53:59.860Z,19.27
2018-10-17T11:56:28.941Z,17.50
2018-10-17T11:58:57.781Z,17.53
2018-10-17T12:01:26.536Z,18.60
2018-10-17T12:03:55.457Z,17.97
2018-10-17T12:06:25.345Z,16.93
2018-10-17T12:08:54.106Z,18.60
2018-10-17T12:11:22.837Z,19.47
2018-10-17T12:13:51.472Z,18.53
2018-10-17T12:16:23.980Z,18.20
2018-10-17T12:18:52.835Z,18.60
2018-10-17T12:21:21.808Z,18.37
2018-10-17T12:23:50.655Z,17.80
2018-10-17T12:26:20.140Z,15.90
2018-10-17T12:28:48.842Z,16.80
2018-10-17T12:31:19.928Z,17.20
2018-10-17T15:45:58.864Z,15.47
2018-10-17T15:48:31.320Z,13.70
2018-10-17T15:51:03.092Z,13.57
2018-10-17T15:53:34.049Z,13.60
2018-10-17T15:56:04.024Z,14.43
2018-10-17T15:58:34.176Z,13.70
2018-10-17T16:01:04.847Z,14.90
2018-10-17T16:03:36.505Z,13.73
2018-10-17T16:06:05.952Z,15.83
2018-10-17T16:08:35.117Z,15.00
2018-10-17T16:25:54.212Z,11.70
2018-10-17T16:28:23.735Z,11.33
2018-10-17T16:30:53.266Z,12.43
2018-10-17T16:33:23.202Z,11.53
2018-10-17T16:35:52.451Z,11.60
2018-10-17T16:58:08.491Z,16.93
2018-10-17T17:00:37.197Z,18.00
2018-10-17T17:03:06.085Z,18.50
2018-10-17T17:05:35.286Z,17.93
2018-10-17T17:08:04.495Z,15.83
2018-10-17T17:10:33.251Z,16.00
2018-10-17T17:13:02.375Z,16.97
2018-10-17T17:15:31.014Z,18.17
2018-10-17T17:18:00.136Z,16.60
2018-10-17T17:20:29.155Z,17.07
2018-10-17T17:22:58.149Z,16.20
2018-10-17T17:25:27.102Z,15.60
2018-10-17T17:27:56.042Z,18.93
2018-10-17T17:30:25.180Z,17.53
2018-10-17T17:32:54.061Z,15.90
2018-10-17T17:35:22.952Z,15.67
2018-10-17T17:37:52.284Z,14.10
2018-10-17T17:40:21.878Z,14.70
2018-10-17T17:42:51.034Z,14.17
2018-10-17T17:45:19.660Z,14.63
2018-10-17T17:47:48.548Z,15.10
2018-10-17T17:50:17.765Z,13.43
2018-10-17T17:52:46.562Z,17.70
2018-10-17T17:55:15.365Z,13.07
2018-10-17T17:57:43.942Z,13.93
2018-10-17T18:00:12.550Z,13.47
2018-10-17T18:02:41.425Z,12.10
2018-10-17T18:05:10.006Z,13.23
2018-10-17T18:07:38.846Z,13.00
2018-10-17T18:11:10.888Z,11.40
2018-10-17T18:13:39.809Z,12.50
2018-10-17T18:16:08.858Z,22.57
2018-10-17T18:18:37.663Z,13.63
2018-10-17T18:21:06.382Z,13.90
2018-10-17T18:23:35.313Z,14.17
2018-10-17T18:26:04.181Z,13.37
2018-10-17T18:28:33.031Z,14.83
2018-10-17T18:31:02.069Z,13.33
2018-10-17T18:33:30.729Z,17.33
2018-10-17T18:35:59.757Z,14.97
2018-10-17T18:38:28.432Z,18.80
2018-10-17T18:40:57.642Z,13.20
2018-10-17T18:43:26.601Z,16.50
2018-10-17T18:45:55.381Z,16.90
2018-10-17T18:48:25.091Z,21.93
2018-10-17T18:50:53.837Z,19.87
2018-10-17T18:53:23.005Z,16.70
2018-10-17T18:55:52.223Z,14.63
2018-10-17T18:58:21.117Z,16.10
2018-10-17T19:00:51.417Z,17.77
2018-10-17T19:03:21.096Z,18.23
2018-10-17T19:05:50.545Z,16.20
2018-10-17T19:08:19.602Z,13.97
2018-10-17T19:10:49.099Z,14.40
2018-10-17T19:13:19.071Z,15.30
2018-10-17T19:15:48.059Z,14.70
2018-10-17T19:18:16.793Z,13.67
2018-10-17T19:20:45.482Z,13.60
2018-10-17T19:23:14.135Z,13.23
2018-10-17T19:25:43.460Z,13.93
2018-10-17T19:28:12.272Z,14.53
2018-10-17T19:30:41.371Z,15.03
2018-10-17T19:33:10.239Z,14.10
2018-10-17T19:35:39.983Z,14.57
2018-10-17T19:38:09.208Z,15.40
2018-10-17T19:40:38.185Z,15.50
2018-10-17T19:43:07.437Z,13.60
2018-10-17T19:45:36.579Z,14.73
2018-10-17T19:48:05.834Z,16.07
2018-10-17T19:50:34.836Z,15.30
2018-10-17T19:53:03.992Z,15.73
2018-10-17T19:55:33.023Z,13.90
2018-10-17T19:58:02.322Z,15.73
2018-10-17T20:00:31.420Z,14.63
2018-10-17T20:03:00.502Z,14.20
2018-10-17T20:05:29.429Z,14.13
2018-10-17T20:07:58.675Z,13.50
2018-10-17T20:10:27.873Z,13.97
2018-10-17T20:12:57.453Z,13.47
2018-10-17T20:15:26.558Z,14.47
2018-10-17T20:17:55.816Z,14.50
2018-10-17T20:20:25.117Z,14.23
2018-10-17T20:22:54.521Z,13.50
2018-10-17T20:25:23.410Z,15.63
2018-10-17T20:27:52.962Z,15.53
2018-10-17T20:30:22.250Z,15.30
2018-10-17T20:32:52.186Z,15.57
2018-10-17T20:35:22.440Z,15.90
2018-10-17T20:37:51.460Z,15.73
2018-10-17T20:40:20.625Z,15.20
2018-10-17T20:42:49.785Z,14.87
2018-10-17T20:45:19.010Z,13.87
2018-10-17T20:47:48.036Z,14.10
2018-10-17T20:50:17.534Z,14.80
2018-10-17T20:52:46.762Z,14.13
2018-10-17T20:55:15.796Z,13.10
2018-10-17T20:57:45.507Z,13.63
2018-10-17T21:00:14.565Z,13.20
2018-10-17T21:02:43.777Z,12.40
2018-10-17T21:05:13.018Z,12.53
2018-10-17T21:07:41.716Z,12.40
2018-10-17T21:10:10.972Z,12.50
2018-10-17T21:12:41.230Z,11.90
2018-10-17T21:15:10.644Z,12.40
2018-10-17T21:17:39.760Z,11.27
2018-10-17T21:20:09.079Z,12.87
2018-10-17T21:22:39.166Z,11.87
2018-10-17T21:25:08.770Z,11.63
2018-10-17T21:27:38.115Z,11.37
2018-10-17T21:30:08.714Z,10.90
2018-10-17T21:32:37.805Z,9.47
2018-10-17T21:35:07.916Z,9.30
2018-10-17T21:37:37.095Z,9.37
2018-10-17T21:40:06.403Z,9.67
2018-10-17T21:42:35.906Z,9.40
2018-10-17T21:45:04.902Z,8.17
2018-10-17T21:47:33.921Z,8.33
2018-10-17T21:50:03.000Z,9.20
2018-10-17T21:52:31.823Z,7.90
2018-10-17T21:55:01.706Z,8.70
2018-10-17T21:57:30.959Z,8.40
2018-10-17T22:00:00.084Z,7.87
2018-10-17T22:02:28.802Z,8.10
2018-10-17T22:04:57.884Z,8.33
2018-10-17T22:07:27.058Z,7.73
2018-10-17T22:09:56.130Z,8.90
2018-10-17T22:12:25.021Z,7.83
2018-10-17T22:14:54.128Z,7.40
2018-10-17T22:17:28.281Z,7.50
2018-10-17T22:19:57.835Z,8.30
2018-10-17T22:22:27.543Z,8.53
2018-10-17T22:24:57.208Z,7.67
2018-10-17T22:27:26.388Z,7.87
2018-10-17T22:29:55.195Z,8.20
2018-10-17T22:32:24.394Z,7.93
2018-10-17T22:34:53.333Z,8.40
2018-10-17T22:37:22.635Z,9.60
2018-10-17T22:39:51.759Z,8.40
2018-10-17T22:42:21.260Z,7.90
2018-10-17T22:44:51.196Z,8.90
2018-10-17T22:47:20.380Z,8.30
2018-10-17T22:49:49.308Z,8.33
2018-10-17T22:52:18.233Z,8.20
2018-10-17T22:54:47.382Z,7.80
2018-10-17T22:57:16.141Z,8.40
2018-10-17T22:59:45.030Z,8.40
2018-10-17T23:02:14.341Z,8.20
2018-10-17T23:04:43.794Z,7.90
2018-10-17T23:07:13.252Z,7.40
2018-10-17T23:09:42.303Z,8.20
2018-10-17T23:12:11.547Z,7.80
2018-10-17T23:14:40.668Z,7.43
2018-10-17T23:17:11.087Z,8.70
2018-10-17T23:19:40.126Z,8.47
2018-10-17T23:22:08.890Z,8.73
2018-10-17T23:24:37.954Z,8.43
2018-10-17T23:27:07.228Z,7.80
2018-10-17T23:29:36.238Z,8.50
2018-10-17T23:32:07.467Z,8.70
2018-10-17T23:34:36.374Z,8.10
2018-10-17T23:37:05.656Z,8.50
2018-10-17T23:39:34.618Z,9.07
2018-10-17T23:42:04.085Z,10.10
2018-10-17T23:44:33.458Z,10.53
2018-10-17T23:47:02.467Z,9.27
2018-10-17T23:49:32.838Z,10.67
2018-10-17T23:52:03.922Z,9.63
2018-10-17T23:54:33.093Z,10.03
2018-10-17T23:57:02.220Z,10.97
2018-10-17T23:59:31.488Z,10.50
